| time (UTC) | temp C | wind direction | speed KPH | gust KPH | rain 1hr cm | rain 24hr cm | rain mn cm | humidity % | barometer mb |
| 20260502152002 | 10 | 273 | 9.7 | 16.1 | 0.00 | 0.25 | 0.00 | 52 | 1015.7 |
| 20260502151520 | 10 | 331 | 4.8 | 16.1 | 0.00 | 0.25 | 0.00 | 56 | 1015.8 |
| 20260502151026 | 10 | 268 | 4.8 | 16.1 | 0.00 | 0.25 | 0.00 | 56 | 1015.8 |
| 20260502150543 | 10 | 304 | 8.0 | 16.1 | 0.00 | 0.25 | 0.00 | 52 | 1015.9 |
| 20260502130543 | 3 | 317 | 0.0 | 9.7 | 0.00 | 0.25 | 0.00 | 87 | 1016.0 |
| 20260502123540 | 2 | 307 | 1.6 | 8.0 | 0.00 | 0.25 | 0.00 | 91 | 1015.7 |
| 20260502123035 | 2 | 292 | 1.6 | 8.0 | 0.00 | 0.25 | 0.00 | 91 | 1015.8 |
| 20260502122540 | 2 | 291 | 3.2 | 11.3 | 0.00 | 0.25 | 0.00 | 91 | 1015.7 |
| 20260502122054 | 2 | 260 | 3.2 | 11.3 | 0.00 | 0.25 | 0.00 | 91 | 1015.6 |
| 20260502121556 | 2 | 285 | 3.2 | 9.7 | 0.00 | 0.25 | 0.00 | 92 | 1015.6 |
| 20260502121055 | 2 | 299 | 3.2 | 9.7 | 0.00 | 0.25 | 0.00 | 93 | 1015.6 |
| 20260502120519 | 2 | 281 | 3.2 | 9.7 | 0.00 | 0.25 | 0.00 | 93 | 1015.7 |
| 20260502115512 | 1 | 291 | 1.6 | 6.4 | 0.00 | 0.25 | 0.00 | 93 | 1015.8 |
| 20260502115023 | 1 | 273 | 1.6 | 8.0 | 0.00 | 0.25 | 0.00 | 93 | 1015.8 |
| 20260502114536 | 1 | 285 | 1.6 | 8.0 | 0.00 | 0.25 | 0.00 | 93 | 1015.7 |
| 20260502114020 | 1 | 269 | 0.0 | 4.8 | 0.00 | 0.25 | 0.00 | 93 | 1015.7 |
| 20260502113537 | 1 | 259 | 3.2 | 8.0 | 0.00 | 0.25 | 0.00 | 93 | 1015.6 |
| 20260502113050 | 1 | 274 | 1.6 | 6.4 | 0.00 | 0.25 | 0.00 | 93 | 1015.7 |
| 20260502112557 | 1 | 269 | 1.6 | 4.8 | 0.00 | 0.25 | 0.00 | 93 | 1015.6 |
| 20260502112044 | 1 | 269 | 0.0 | 3.2 | 0.00 | 0.25 | 0.00 | 93 | 1015.7 |
| 20260502111559 | 1 | 269 | 0.0 | 3.2 | 0.00 | 0.25 | 0.00 | 93 | 1015.5 |
| 20260502111500 | 1 | 269 | 0.0 | 3.2 | 0.00 | 0.25 | 0.00 | 93 | 1015.6 |
| 20260502111010 | 1 | 269 | 0.0 | 3.2 | 0.00 | 0.25 | 0.00 | 93 | 1015.6 |
| 20260502110557 | 1 | 269 | 0.0 | 1.6 | 0.00 | 0.25 | 0.00 | 93 | 1015.5 |
| 20260502110502 | 1 | 269 | 0.0 | 1.6 | 0.00 | 0.25 | 0.00 | 93 | 1015.5 |
| 20260502110014 | 1 | 269 | 0.0 | 6.4 | 0.00 | 0.25 | 0.00 | 93 | 1015.6 |
| 20260502105527 | 1 | 269 | 0.0 | 6.4 | 0.00 | 0.25 | 0.00 | 92 | 1015.6 |
| 20260502105013 | 1 | 269 | 0.0 | 3.2 | 0.00 | 0.25 | 0.00 | 92 | 1015.6 |
| 20260502104529 | 1 | 269 | 0.0 | 3.2 | 0.00 | 0.25 | 0.00 | 92 | 1015.6 |
| 20260502104036 | 2 | 269 | 0.0 | 6.4 | 0.00 | 0.25 | 0.00 | 92 | 1015.5 |
| 20260502103555 | 2 | 269 | 0.0 | 6.4 | 0.00 | 0.25 | 0.00 | 93 | 1015.5 |
| 20260502103042 | 2 | 268 | 1.6 | 4.8 | 0.00 | 0.25 | 0.00 | 92 | 1015.5 |
| 20260502102553 | 2 | 254 | 1.6 | 6.4 | 0.00 | 0.25 | 0.00 | 92 | 1015.3 |
| 20260502102013 | 2 | 251 | 1.6 | 6.4 | 0.00 | 0.25 | 0.00 | 92 | 1015.4 |
| 20260502101556 | 2 | 252 | 1.6 | 6.4 | 0.00 | 0.25 | 0.00 | 93 | 1015.4 |
| 20260502101010 | 2 | 250 | 0.0 | 6.4 | 0.00 | 0.25 | 0.00 | 93 | 1015.4 |
| 20260502100518 | 2 | 255 | 1.6 | 6.4 | 0.00 | 0.25 | 0.00 | 92 | 1015.5 |
| 20260502091056 | 2 | 254 | 1.6 | 8.0 | 0.00 | 0.25 | 0.00 | 93 | 1015.8 |
| 20260502090546 | 2 | 254 | 1.6 | 9.7 | 0.00 | 0.25 | 0.00 | 93 | 1015.7 |
| 20260502071528 | 3 | 254 | 1.6 | 3.2 | 0.00 | 0.25 | 0.00 | 93 | 1015.2 |
| 20260502071031 | 3 | 254 | 0.0 | 3.2 | 0.00 | 0.25 | 0.00 | 93 | 1015.2 |
| 20260502070533 | 3 | 254 | 0.0 | 1.6 | 0.00 | 0.25 | 0.00 | 93 | 1015.2 |
| 20260502070101 | 3 | 254 | 0.0 | 3.2 | 0.00 | 0.25 | 0.00 | 93 | 1015.4 |
| 20260502065558 | 3 | 254 | 0.0 | 3.2 | 0.00 | 0.25 | 0.00 | 93 | 1015.5 |
| 20260502065048 | 3 | 259 | 1.6 | 3.2 | 0.00 | 0.25 | 0.00 | 93 | 1015.5 |
| 20260502064505 | 3 | 269 | 1.6 | 3.2 | 0.00 | 0.25 | 0.00 | 93 | 1015.5 |
| 20260502064014 | 3 | 209 | 0.0 | 3.2 | 0.00 | 0.25 | 0.00 | 93 | 1015.5 |
| 20260502063506 | 3 | 199 | 0.0 | 1.6 | 0.00 | 0.25 | 0.00 | 92 | 1015.5 |
| 20260502063015 | 3 | 199 | 0.0 | 1.6 | 0.00 | 0.25 | 0.00 | 92 | 1015.5 |
| 20260502062530 | 3 | 205 | 0.0 | 3.2 | 0.00 | 0.25 | 0.00 | 92 | 1015.5 |
| 20260502062039 | 3 | 211 | 0.0 | 3.2 | 0.00 | 0.25 | 0.00 | 92 | 1015.5 |
| 20260502061533 | 3 | 246 | 0.0 | 3.2 | 0.00 | 0.25 | 0.00 | 92 | 1015.4 |
| 20260502061046 | 3 | 246 | 0.0 | 3.2 | 0.00 | 0.25 | 0.00 | 92 | 1015.5 |
| 20260502060502 | 3 | 246 | 0.0 | 3.2 | 0.00 | 0.25 | 0.00 | 92 | 1015.8 |
| 20260502060052 | 3 | 246 | 0.0 | 3.2 | 0.00 | 0.25 | 0.00 | 92 | 1015.6 |
| 20260502055506 | 3 | 246 | 0.0 | 3.2 | 0.00 | 0.25 | 0.00 | 91 | 1015.7 |
| 20260502055017 | 3 | 246 | 0.0 | 6.4 | 0.00 | 0.25 | 0.00 | 91 | 1015.7 |
| 20260502054520 | 3 | 246 | 0.0 | 6.4 | 0.00 | 0.25 | 0.00 | 91 | 1015.8 |
| 20260502054016 | 3 | 246 | 0.0 | 1.6 | 0.00 | 0.25 | 0.00 | 91 | 1015.8 |
| 20260502053532 | 3 | 246 | 0.0 | 1.6 | 0.00 | 0.25 | 0.00 | 90 | 1015.8 |
| 20260502053043 | 4 | 246 | 0.0 | 1.6 | 0.00 | 0.25 | 0.00 | 91 | 1015.8 |
| 20260502052536 | 4 | 246 | 0.0 | 1.6 | 0.00 | 0.25 | 0.00 | 90 | 1015.9 |
| 20260502052049 | 4 | 246 | 0.0 | 1.6 | 0.00 | 0.25 | 0.00 | 90 | 1016.0 |
| 20260502051505 | 4 | 246 | 0.0 | 0.0 | 0.00 | 0.25 | 0.00 | 90 | 1015.9 |
| 20260502051055 | 4 | 246 | 0.0 | 0.0 | 0.00 | 0.25 | 0.00 | 90 | 1015.9 |
| 20260502050504 | 4 | 246 | 0.0 | 0.0 | 0.00 | 0.25 | 0.00 | 90 | 1015.9 |
| 20260502050017 | 4 | 246 | 0.0 | 0.0 | 0.00 | 0.25 | 0.00 | 90 | 1016.0 |
| 20260502045530 | 5 | 246 | 0.0 | 0.0 | 0.00 | 0.25 | 0.00 | 90 | 1016.0 |
| 20260502045021 | 5 | 246 | 0.0 | 0.0 | 0.00 | 0.25 | 0.00 | 90 | 1016.0 |
| 20260502044531 | 5 | 246 | 0.0 | 1.6 | 0.00 | 0.25 | 0.00 | 90 | 1016.1 |
| 20260502044044 | 5 | 246 | 0.0 | 1.6 | 0.00 | 0.25 | 0.00 | 90 | 1016.1 |
| 20260502043532 | 5 | 246 | 0.0 | 0.0 | 0.00 | 0.25 | 0.00 | 91 | 1016.1 |
| 20260502043048 | 5 | 246 | 0.0 | 0.0 | 0.00 | 0.25 | 0.00 | 91 | 1016.1 |
| 20260502042558 | 5 | 246 | 0.0 | 1.6 | 0.00 | 0.25 | 0.00 | 91 | 1016.1 |
| 20260502042111 | 5 | 246 | 0.0 | 1.6 | 0.00 | 0.25 | 0.00 | 91 | 1015.9 |
| 20260502041559 | 5 | 246 | 0.0 | 1.6 | 0.00 | 0.25 | 0.00 | 91 | 1016.0 |
| 20260502041014 | 5 | 246 | 0.0 | 3.2 | 0.00 | 0.25 | 0.00 | 91 | 1016.0 |
| 20260502040524 | 5 | 246 | 0.0 | 3.2 | 0.00 | 0.25 | 0.00 | 91 | 1016.1 |
| 20260502040016 | 5 | 246 | 0.0 | 1.6 | 0.00 | 0.25 | 0.25 | 91 | 1016.1 |
| 20260502035523 | 5 | 246 | 0.0 | 1.6 | 0.00 | 0.25 | 0.25 | 91 | 1016.1 |
| 20260502035038 | 5 | 271 | 0.0 | 3.2 | 0.00 | 0.25 | 0.25 | 91 | 1016.2 |
| 20260502034526 | 5 | 271 | 0.0 | 3.2 | 0.00 | 0.25 | 0.25 | 91 | 1016.2 |
| 20260502034040 | 5 | 271 | 0.0 | 1.6 | 0.00 | 0.25 | 0.25 | 91 | 1016.3 |
| 20260502033550 | 5 | 271 | 0.0 | 1.6 | 0.00 | 0.25 | 0.25 | 91 | 1016.1 |
| 20260502033003 | 5 | 275 | 0.0 | 3.2 | 0.00 | 0.25 | 0.25 | 91 | 1016.2 |
| 20260502032549 | 5 | 271 | 0.0 | 3.2 | 0.00 | 0.25 | 0.25 | 91 | 1016.1 |
| 20260502032005 | 5 | 305 | 0.0 | 3.2 | 0.00 | 0.25 | 0.25 | 90 | 1016.0 |
| 20260502031516 | 5 | 305 | 0.0 | 3.2 | 0.00 | 0.25 | 0.25 | 90 | 1015.8 |
| 20260502031007 | 5 | 305 | 0.0 | 0.0 | 0.00 | 0.25 | 0.25 | 91 | 1015.8 |
| 20260502030521 | 5 | 305 | 0.0 | 0.0 | 0.00 | 0.25 | 0.25 | 91 | 1015.7 |
| 20260502030034 | 5 | 305 | 0.0 | 0.0 | 0.00 | 0.25 | 0.25 | 90 | 1015.8 |
| 20260502025535 | 5 | 305 | 0.0 | 0.0 | 0.00 | 0.25 | 0.25 | 90 | 1015.9 |
| 20260502025035 | 5 | 305 | 0.0 | 0.0 | 0.00 | 0.25 | 0.25 | 90 | 1015.9 |
| 20260502024545 | 5 | 305 | 0.0 | 0.0 | 0.00 | 0.25 | 0.25 | 90 | 1015.9 |
| 20260502024003 | 4 | 305 | 0.0 | 0.0 | 0.00 | 0.25 | 0.25 | 89 | 1016.0 |
| 20260502023549 | 4 | 305 | 0.0 | 0.0 | 0.00 | 0.25 | 0.25 | 89 | 1015.9 |
| 20260502023007 | 5 | 305 | 0.0 | 0.0 | 0.00 | 0.25 | 0.25 | 88 | 1015.6 |
| 20260502022516 | 5 | 305 | 0.0 | 0.0 | 0.00 | 0.25 | 0.25 | 89 | 1015.6 |
| 20260502022008 | 5 | 305 | 0.0 | 0.0 | 0.00 | 0.25 | 0.25 | 88 | 1015.5 |
| 20260502021519 | 5 | 305 | 0.0 | 0.0 | 0.00 | 0.25 | 0.25 | 88 | 1015.6 |
| 20260502021034 | 5 | 305 | 0.0 | 1.6 | 0.00 | 0.25 | 0.25 | 87 | 1015.6 |
| 20260502020543 | 5 | 305 | 0.0 | 1.6 | 0.00 | 0.25 | 0.25 | 87 | 1015.7 |
| 20260502020033 | 5 | 305 | 0.0 | 0.0 | 0.00 | 0.25 | 0.25 | 86 | 1015.7 |
| 20260502015544 | 5 | 305 | 0.0 | 0.0 | 0.00 | 0.25 | 0.25 | 86 | 1015.7 |
| 20260502015058 | 5 | 305 | 0.0 | 0.0 | 0.00 | 0.25 | 0.25 | 85 | 1015.6 |
| 20260502014549 | 5 | 305 | 0.0 | 0.0 | 0.00 | 0.25 | 0.25 | 85 | 1015.6 |
| 20260502014009 | 5 | 305 | 0.0 | 0.0 | 0.00 | 0.25 | 0.25 | 85 | 1015.4 |
| 20260502013522 | 5 | 305 | 0.0 | 0.0 | 0.00 | 0.25 | 0.25 | 85 | 1015.3 |
| 20260502013021 | 5 | 305 | 0.0 | 0.0 | 0.00 | 0.25 | 0.25 | 85 | 1015.3 |
| 20260502012524 | 5 | 305 | 0.0 | 0.0 | 0.00 | 0.25 | 0.25 | 84 | 1015.1 |
| 20260502012035 | 6 | 305 | 0.0 | 0.0 | 0.00 | 0.25 | 0.25 | 84 | 1014.9 |
| 20260502011547 | 6 | 305 | 0.0 | 0.0 | 0.00 | 0.25 | 0.25 | 84 | 1014.9 |
| 20260502011035 | 6 | 305 | 0.0 | 0.0 | 0.00 | 0.25 | 0.25 | 85 | 1014.8 |
| 20260502010551 | 6 | 305 | 0.0 | 0.0 | 0.00 | 0.25 | 0.25 | 85 | 1014.6 |
| 20260502010017 | 6 | 305 | 0.0 | 0.0 | 0.00 | 0.25 | 0.25 | 85 | 1014.6 |
| 20260502005605 | 6 | 305 | 0.0 | 0.0 | 0.00 | 0.25 | 0.25 | 85 | 1014.4 |
| 20260502005012 | 6 | 305 | 0.0 | 0.0 | 0.00 | 0.25 | 0.25 | 84 | 1014.7 |
| 20260502004522 | 6 | 305 | 0.0 | 0.0 | 0.00 | 0.25 | 0.25 | 84 | 1014.6 |
| 20260502004035 | 7 | 305 | 0.0 | 0.0 | 0.00 | 0.25 | 0.25 | 84 | 1014.6 |
| 20260502003525 | 7 | 305 | 0.0 | 0.0 | 0.00 | 0.25 | 0.25 | 84 | 1014.6 |
| 20260502003035 | 7 | 305 | 0.0 | 0.0 | 0.00 | 0.25 | 0.25 | 83 | 1014.6 |
| 20260502002555 | 7 | 305 | 0.0 | 0.0 | 0.00 | 0.25 | 0.25 | 82 | 1014.8 |
| 20260502002039 | 7 | 305 | 0.0 | 1.6 | 0.00 | 0.25 | 0.25 | 82 | 1014.6 |
| 20260502001556 | 7 | 305 | 0.0 | 1.6 | 0.00 | 0.25 | 0.25 | 82 | 1014.4 |
| 20260502001007 | 7 | 317 | 0.0 | 3.2 | 0.00 | 0.25 | 0.25 | 82 | 1014.3 |
| 20260502000508 | 7 | 325 | 0.0 | 3.2 | 0.00 | 0.25 | 0.25 | 81 | 1014.2 |
| 20260502000014 | 7 | 319 | 0.0 | 6.4 | 0.00 | 0.25 | 0.25 | 80 | 1014.0 |
| 20260501235524 | 7 | 309 | 1.6 | 4.8 | 0.00 | 0.25 | 0.25 | 80 | 1013.8 |
| 20260501235038 | 7 | 316 | 0.0 | 3.2 | 0.00 | 0.25 | 0.25 | 80 | 1013.6 |
| 20260501234612 | 7 | 333 | 0.0 | 6.4 | 0.00 | 0.25 | 0.25 | 80 | 1013.6 |
| 20260501234004 | 8 | 287 | 1.6 | 6.4 | 0.00 | 0.25 | 0.25 | 80 | 1013.5 |
| 20260501233600 | 7 | 284 | 0.0 | 8.0 | 0.00 | 0.25 | 0.25 | 80 | 1013.5 |
| 20260501233500 | 7 | 282 | 0.0 | 8.0 | 0.00 | 0.25 | 0.25 | 80 | 1013.5 |
| 20260501233007 | 7 | 317 | 1.6 | 9.7 | 0.00 | 0.25 | 0.25 | 79 | 1013.5 |
| 20260501232521 | 8 | 317 | 3.2 | 12.9 | 0.00 | 0.25 | 0.25 | 80 | 1013.5 |
| 20260501232033 | 8 | 312 | 1.6 | 12.9 | 0.00 | 0.25 | 0.25 | 79 | 1013.6 |
| 20260501231526 | 8 | 337 | 1.6 | 11.3 | 0.00 | 0.25 | 0.25 | 80 | 1013.5 |
| 20260501231033 | 8 | 307 | 3.2 | 14.5 | 0.00 | 0.25 | 0.25 | 79 | 1013.5 |
| 20260501230550 | 8 | 320 | 4.8 | 14.5 | 0.00 | 0.25 | 0.25 | 78 | 1013.4 |
| 20260501230106 | 8 | 338 | 4.8 | 14.5 | 0.00 | 0.25 | 0.25 | 78 | 1013.3 |
| 20260501225546 | 8 | 269 | 4.8 | 11.3 | 0.00 | 0.25 | 0.25 | 78 | 1013.3 |
| 20260501225059 | 8 | 315 | 1.6 | 14.5 | 0.00 | 0.25 | 0.25 | 79 | 1013.2 |
| 20260501224514 | 8 | 267 | 6.4 | 17.7 | 0.00 | 0.25 | 0.25 | 78 | 1013.0 |
| 20260501224053 | 8 | 283 | 6.4 | 14.5 | 0.00 | 0.25 | 0.25 | 78 | 1013.0 |
| 20260501223603 | 8 | 325 | 4.8 | 17.7 | 0.00 | 0.25 | 0.25 | 78 | 1013.0 |
| 20260501223029 | 8 | 332 | 8.0 | 14.5 | 0.00 | 0.25 | 0.25 | 79 | 1013.0 |
| 20260501222543 | 8 | 339 | 6.4 | 14.5 | 0.00 | 0.25 | 0.25 | 80 | 1013.0 |
| 20260501222052 | 8 | 302 | 6.4 | 20.9 | 0.00 | 0.25 | 0.25 | 79 | 1013.1 |
| 20260501221511 | 8 | 319 | 9.7 | 20.9 | 0.00 | 0.25 | 0.25 | 76 | 1012.9 |
| 20260501221047 | 8 | 339 | 8.0 | 25.7 | 0.00 | 0.25 | 0.25 | 78 | 1012.9 |
| 20260501220559 | 9 | 262 | 9.7 | 25.7 | 0.00 | 0.25 | 0.25 | 76 | 1013.0 |
| 20260501220040 | 9 | 286 | 9.7 | 24.1 | 0.00 | 0.25 | 0.25 | 76 | 1012.9 |
| 20260501215545 | 10 | 20 | 12.9 | 24.1 | 0.00 | 0.25 | 0.25 | 75 | 1012.7 |
| 20260501215059 | 10 | 286 | 9.7 | 30.6 | 0.00 | 0.25 | 0.25 | 75 | 1012.5 |
| 20260501215002 | 10 | 317 | 11.3 | 30.6 | 0.00 | 0.25 | 0.25 | 74 | 1012.6 |
| 20260501214524 | 10 | 276 | 11.3 | 30.6 | 0.00 | 0.25 | 0.25 | 74 | 1012.4 |
| 20260501214025 | 11 | 271 | 8.0 | 25.7 | 0.00 | 0.25 | 0.25 | 73 | 1012.1 |
| 20260501213541 | 11 | 305 | 9.7 | 38.6 | 0.00 | 0.25 | 0.25 | 72 | 1011.9 |
| 20260501213058 | 11 | 232 | 9.7 | 29.0 | 0.00 | 0.25 | 0.25 | 73 | 1011.8 |
| 20260501212507 | 11 | 285 | 9.7 | 22.5 | 0.00 | 0.25 | 0.25 | 73 | 1011.7 |
| 20260501212019 | 11 | 277 | 11.3 | 29.0 | 0.00 | 0.25 | 0.25 | 73 | 1011.5 |
| 20260501211534 | 11 | 267 | 14.5 | 29.0 | 0.00 | 0.25 | 0.25 | 72 | 1011.6 |
| 20260501211043 | 12 | 325 | 11.3 | 30.6 | 0.00 | 0.25 | 0.25 | 74 | 1011.4 |
| 20260501210559 | 11 | 260 | 9.7 | 30.6 | 0.00 | 0.25 | 0.25 | 78 | 1011.3 |
| 20260501210503 | 11 | 259 | 9.7 | 30.6 | 0.00 | 0.25 | 0.25 | 80 | 1011.2 |
| 20260501210011 | 11 | 279 | 8.0 | 24.1 | 0.00 | 0.25 | 0.25 | 81 | 1011.1 |
| 20260501205525 | 11 | 309 | 9.7 | 24.1 | 0.00 | 0.25 | 0.25 | 80 | 1010.9 |
| 20260501205035 | 11 | 293 | 8.0 | 22.5 | 0.00 | 0.25 | 0.25 | 84 | 1010.9 |
| 20260501204550 | 11 | 327 | 8.0 | 17.7 | 0.00 | 0.25 | 0.25 | 87 | 1010.7 |
| 20260501204101 | 10 | 292 | 4.8 | 17.7 | 0.03 | 0.25 | 0.25 | 88 | 1010.9 |
| 20260501204001 | 10 | 311 | 8.0 | 17.7 | 0.03 | 0.25 | 0.25 | 87 | 1010.8 |
| 20260501203515 | 10 | 269 | 9.7 | 20.9 | 0.03 | 0.25 | 0.25 | 87 | 1011.0 |
| 20260501203025 | 10 | 247 | 6.4 | 20.9 | 0.03 | 0.25 | 0.25 | 85 | 1010.9 |
| 20260501202541 | 10 | 286 | 6.4 | 16.1 | 0.03 | 0.25 | 0.25 | 87 | 1010.8 |
| 20260501202056 | 10 | 249 | 3.2 | 12.9 | 0.03 | 0.25 | 0.25 | 86 | 1010.7 |
| 20260501201508 | 10 | 267 | 3.2 | 14.5 | 0.03 | 0.25 | 0.25 | 87 | 1010.6 |
| 20260501201017 | 10 | 213 | 3.2 | 17.7 | 0.03 | 0.25 | 0.25 | 87 | 1010.7 |
| 20260501200532 | 10 | 261 | 4.8 | 20.9 | 0.03 | 0.25 | 0.25 | 89 | 1010.7 |
| 20260501200044 | 10 | 259 | 8.0 | 20.9 | 0.03 | 0.25 | 0.25 | 91 | 1010.8 |
| 20260501195558 | 10 | 267 | 4.8 | 14.5 | 0.03 | 0.25 | 0.25 | 94 | 1010.9 |
| 20260501195013 | 9 | 177 | 4.8 | 16.1 | 0.03 | 0.25 | 0.25 | 92 | 1010.9 |
| 20260501194528 | 9 | 304 | 3.2 | 14.5 | 0.03 | 0.25 | 0.25 | 92 | 1010.9 |
| 20260501194035 | 8 | 118 | 3.2 | 16.1 | 0.00 | 0.23 | 0.23 | 91 | 1011.0 |
| 20260501193544 | 8 | 234 | 4.8 | 16.1 | 0.00 | 0.23 | 0.23 | 90 | 1011.2 |
| 20260501193001 | 8 | 200 | 4.8 | 16.1 | 0.03 | 0.23 | 0.23 | 90 | 1011.3 |
| 20260501192547 | 8 | 211 | 4.8 | 14.5 | 0.03 | 0.23 | 0.23 | 90 | 1011.2 |
| 20260501192003 | 9 | 252 | 4.8 | 19.3 | 0.05 | 0.23 | 0.23 | 90 | 1011.2 |
| 20260501191514 | 9 | 271 | 3.2 | 19.3 | 0.05 | 0.23 | 0.23 | 90 | 1011.3 |
| 20260501191059 | 9 | 223 | 6.4 | 12.9 | 0.08 | 0.23 | 0.23 | 91 | 1011.3 |
| 20260501191004 | 9 | 251 | 8.0 | 12.9 | 0.08 | 0.23 | 0.23 | 91 | 1011.3 |
| 20260501190511 | 9 | 223 | 1.6 | 16.1 | 0.10 | 0.23 | 0.23 | 91 | 1011.2 |
| 20260501190038 | 8 | 240 | 6.4 | 14.5 | 0.10 | 0.23 | 0.23 | 90 | 1011.1 |
| 20260501185525 | 9 | 275 | 3.2 | 12.9 | 0.10 | 0.23 | 0.23 | 91 | 1011.2 |
| 20260501185025 | 9 | 259 | 4.8 | 12.9 | 0.13 | 0.23 | 0.23 | 91 | 1011.3 |
| 20260501184535 | 9 | 144 | 1.6 | 12.9 | 0.13 | 0.23 | 0.23 | 91 | 1011.2 |
| 20260501184051 | 8 | 273 | 4.8 | 12.9 | 0.13 | 0.23 | 0.23 | 91 | 1011.2 |
| 20260501183537 | 8 | 273 | 6.4 | 14.5 | 0.13 | 0.23 | 0.23 | 91 | 1011.2 |
| 20260501183050 | 8 | 242 | 4.8 | 14.5 | 0.10 | 0.20 | 0.20 | 90 | 1011.1 |
| 20260501182503 | 8 | 266 | 3.2 | 12.9 | 0.13 | 0.20 | 0.20 | 90 | 1011.2 |
| 20260501182057 | 8 | 263 | 1.6 | 12.9 | 0.13 | 0.20 | 0.20 | 90 | 1011.0 |
| 20260501181628 | 8 | 265 | 0.0 | 11.3 | 0.13 | 0.18 | 0.18 | 90 | 1011.1 |
| 20260501181501 | 8 | 192 | 0.0 | 11.3 | 0.10 | 0.15 | 0.18 | 90 | 1011.2 |
| 20260501181015 | 8 | 242 | 6.4 | 11.3 | 0.10 | 0.15 | 0.15 | 89 | 1010.9 |
| 20260501180525 | 9 | 198 | 1.6 | 6.4 | 0.08 | 0.13 | 0.13 | 89 | 1011.1 |
| 20260501180018 | 9 | 254 | 0.0 | 6.4 | 0.08 | 0.13 | 0.13 | 89 | 1010.9 |
| 20260501175523 | 9 | 165 | 0.0 | 0.0 | 0.05 | 0.10 | 0.13 | 89 | 1010.8 |
| 20260501175036 | 9 | 178 | 0.0 | 1.6 | 0.08 | 0.10 | 0.10 | 88 | 1010.8 |
| 20260501174527 | 9 | 178 | 0.0 | 6.4 | 0.08 | 0.10 | 0.10 | 88 | 1010.9 |
| 20260501174041 | 9 | 181 | 0.0 | 4.8 | 0.08 | 0.10 | 0.10 | 88 | 1010.9 |
| 20260501173551 | 9 | 180 | 0.0 | 6.4 | 0.08 | 0.10 | 0.10 | 88 | 1011.1 |
| 20260501173116 | 9 | 188 | 0.0 | 6.4 | 0.08 | 0.10 | 0.10 | 87 | 1011.1 |
| 20260501172557 | 9 | 158 | 0.0 | 8.0 | 0.05 | 0.08 | 0.08 | 86 | 1011.0 |
| 20260501172013 | 9 | 235 | 0.0 | 12.9 | 0.05 | 0.08 | 0.08 | 86 | 1011.2 |
| 20260501171525 | 9 | 272 | 1.6 | 4.8 | 0.03 | 0.05 | 0.05 | 87 | 1011.3 |
| 20260501171019 | 9 | 245 | 1.6 | 8.0 | 0.05 | 0.05 | 0.05 | 87 | 1011.2 |
| 20260501170529 | 9 | 250 | 0.0 | 11.3 | 0.05 | 0.05 | 0.05 | 85 | 1011.1 |
| 20260501170044 | 9 | 238 | 1.6 | 11.3 | 0.05 | 0.05 | 0.05 | 84 | 1011.3 |
| 20260501165535 | 9 | 218 | 1.6 | 9.7 | 0.05 | 0.05 | 0.05 | 85 | 1011.2 |
| 20260501165045 | 9 | 262 | 0.0 | 11.3 | 0.03 | 0.03 | 0.03 | 83 | 1011.2 |
| 20260501164558 | 10 | 257 | 4.8 | 14.5 | 0.03 | 0.03 | 0.03 | 82 | 1011.3 |
| 20260501164015 | 10 | 263 | 3.2 | 14.5 | 0.03 | 0.03 | 0.03 | 81 | 1011.3 |
| 20260501163513 | 10 | 273 | 1.6 | 12.9 | 0.03 | 0.03 | 0.03 | 79 | 1011.3 |
| 20260501163021 | 10 | 261 | 0.0 | 14.5 | 0.03 | 0.03 | 0.03 | 79 | 1011.3 |
| 20260501162531 | 10 | 304 | 1.6 | 14.5 | 0.03 | 0.03 | 0.03 | 77 | 1011.1 |
| 20260501162022 | 10 | 276 | 3.2 | 12.9 | 0.03 | 0.03 | 0.03 | 77 | 1011.1 |
| 20260501161533 | 11 | 245 | 0.0 | 3.2 | 0.03 | 0.03 | 0.03 | 82 | 1011.2 |
| 20260501161047 | 11 | 196 | 0.0 | 3.2 | 0.00 | 0.00 | 0.00 | 80 | 1011.2 |
| 20260501160555 | 11 | 131 | 0.0 | 1.6 | 0.00 | 0.00 | 0.00 | 75 | 1011.0 |
| 20260501160047 | 11 | 210 | 0.0 | 6.4 | 0.00 | 0.00 | 0.00 | 74 | 1011.1 |
| 20260501155559 | 11 | 257 | 0.0 | 6.4 | 0.00 | 0.00 | 0.00 | 76 | 1011.1 |
| 20260501155507 | 11 | 258 | 0.0 | 6.4 | 0.00 | 0.00 | 0.00 | 75 | 1011.2 |
| 20260501155015 | 11 | 243 | 0.0 | 0.0 | 0.00 | 0.00 | 0.00 | 74 | 1011.1 |